Time;durP1;ratioP1;P1;durP2;ratioP2;P2;SDS_P1;SDS_P2;PMS_P1;PMS_P2;Temp;Humidity;BMP_temperature;BMP_pressure;BME280_temperature;BME280_humidity;BME280_pressure;Samples;Min_cycle;Max_cycle;Signal;HPM_P1;HPM_P2
2022/07/17 00:01:45;;;;;;;5.30;2.08;;;;;;;19.19;49.97;100606.47;5069314;28;20036;-91
2022/07/17 00:04:10;;;;;;;3.00;1.90;;;;;;;19.16;50.00;100611.03;5067853;28;20037;-90
2022/07/17 00:06:36;;;;;;;3.72;2.30;;;;;;;19.06;50.45;100603.91;5068819;28;20426;-91
2022/07/17 00:09:02;;;;;;;3.50;2.13;;;;;;;19.05;50.49;100605.19;5051508;28;20044;-91
2022/07/17 00:11:27;;;;;;;4.68;2.08;;;;;;;18.97;50.92;100606.81;5069320;28;20039;-92
2022/07/17 00:13:53;;;;;;;3.67;2.08;;;;;;;18.94;51.06;100622.59;5069147;28;20572;-90
2022/07/17 00:16:19;;;;;;;4.00;1.90;;;;;;;18.87;51.36;100616.59;5068494;28;20058;-91
2022/07/17 00:18:45;;;;;;;5.28;2.10;;;;;;;18.86;51.22;100621.41;5051677;28;20112;-89
2022/07/17 00:21:10;;;;;;;3.33;1.90;;;;;;;18.80;51.56;100623.34;5070180;28;20111;-91
2022/07/17 00:23:36;;;;;;;6.28;2.05;;;;;;;18.84;51.60;100623.16;5068640;28;20399;-91
2022/07/17 00:26:01;;;;;;;6.35;2.35;;;;;;;18.75;51.99;100631.66;5051480;28;20041;-91
2022/07/17 00:28:27;;;;;;;3.42;1.95;;;;;;;18.75;51.78;100626.81;5051074;28;20120;-90
2022/07/17 00:30:52;;;;;;;4.90;2.50;;;;;;;18.64;52.34;100627.34;5052018;28;20040;-89
2022/07/17 00:33:18;;;;;;;3.13;1.98;;;;;;;18.61;52.39;100633.94;5050312;28;20047;-91
2022/07/17 00:35:43;;;;;;;2.95;2.00;;;;;;;18.61;52.67;100638.75;5069173;28;20083;-90
2022/07/17 00:38:10;;;;;;;3.55;2.08;;;;;;;18.53;52.84;100635.53;5069548;28;20404;-90
2022/07/17 00:40:35;;;;;;;4.00;2.22;;;;;;;18.44;53.23;100635.56;5068252;28;20483;-90
2022/07/17 00:43:01;;;;;;;3.22;2.00;;;;;;;18.39;53.15;100641.06;5068696;28;20044;-89
2022/07/17 00:45:27;;;;;;;3.95;2.28;;;;;;;18.32;53.45;100650.59;5068216;28;20048;-90
2022/07/17 00:48:01;;;;;;;5.07;2.20;;;;;;;18.24;53.58;100643.03;5068959;28;20374;-90
2022/07/17 00:50:32;;;;;;;3.22;2.30;;;;;;;18.23;53.84;100647.84;5050515;28;20123;-90
2022/07/17 00:52:58;;;;;;;6.05;1.90;;;;;;;18.27;53.90;100645.66;5050205;28;20049;-90
2022/07/17 00:55:24;;;;;;;3.20;2.08;;;;;;;18.08;54.48;100650.56;5051500;28;20061;-93
2022/07/17 00:57:51;;;;;;;5.75;2.60;;;;;;;18.17;54.04;100652.53;5069035;28;20036;-90
2022/07/17 01:03:09;;;;;;;7.25;2.40;;;;;;;18.11;54.86;100665.69;5188554;22;20490;-81
2022/07/17 01:05:34;;;;;;;3.70;2.10;;;;;;;18.05;55.22;100659.16;5024258;28;20042;-81
2022/07/17 01:08:02;;;;;;;3.97;2.03;;;;;;;18.01;55.63;100669.75;5032591;28;20166;-81
2022/07/17 01:10:28;;;;;;;4.32;2.30;;;;;;;18.00;55.28;100679.44;5016324;28;20054;-81
2022/07/17 01:12:53;;;;;;;3.90;2.20;;;;;;;17.92;55.72;100681.00;5031549;28;20041;-81
2022/07/17 01:15:19;;;;;;;4.25;2.28;;;;;;;17.87;56.06;100676.84;5017194;28;20498;-81
2022/07/17 01:17:44;;;;;;;4.03;2.00;;;;;;;17.83;56.35;100686.66;5036045;28;20045;-81
2022/07/17 01:20:11;;;;;;;4.88;2.10;;;;;;;17.85;56.56;100698.19;5032221;28;20087;-83
2022/07/17 01:22:49;;;;;;;4.78;2.30;;;;;;;17.78;56.77;100690.09;5033947;28;20479;-83
2022/07/17 01:25:17;;;;;;;5.13;2.15;;;;;;;17.73;56.98;100687.94;4999764;28;20497;-83
2022/07/17 01:27:43;;;;;;;5.43;2.28;;;;;;;17.64;57.75;100685.91;5036099;28;20107;-82
2022/07/17 01:30:09;;;;;;;4.03;2.00;;;;;;;17.61;57.34;100698.06;5028253;28;20124;-83
2022/07/17 01:32:39;;;;;;;7.18;2.63;;;;;;;17.53;57.83;100691.97;5015330;28;20045;-83
2022/07/17 01:35:05;;;;;;;3.85;2.10;;;;;;;17.51;57.74;100700.06;5031071;28;20052;-84
2022/07/17 01:37:31;;;;;;;3.78;2.30;;;;;;;17.47;58.09;100695.91;5013523;28;20083;-83
2022/07/17 01:39:57;;;;;;;3.92;2.25;;;;;;;17.44;57.91;100694.78;5032332;28;20057;-81
2022/07/17 01:42:23;;;;;;;6.10;2.60;;;;;;;17.37;58.27;100683.91;5015250;28;20041;-81
2022/07/17 01:44:49;;;;;;;3.75;2.42;;;;;;;17.40;58.50;100705.38;5014455;28;20055;-81
2022/07/17 01:47:15;;;;;;;5.40;2.30;;;;;;;17.38;58.49;100702.28;5015573;28;20065;-80
2022/07/17 01:49:54;;;;;;;4.90;2.28;;;;;;;17.32;58.55;100695.72;5030130;28;20478;-81
2022/07/17 01:52:21;;;;;;;5.47;2.25;;;;;;;17.39;58.77;100703.06;5015209;28;20140;-81
2022/07/17 01:54:46;;;;;;;5.45;1.95;;;;;;;17.32;59.96;100698.53;5031629;28;20041;-80
2022/07/17 01:57:12;;;;;;;2.97;1.80;;;;;;;17.31;59.26;100710.97;5031026;28;20045;-83
2022/07/17 01:59:38;;;;;;;4.57;2.17;;;;;;;17.26;59.11;100711.63;5031983;28;20049;-80
2022/07/17 02:02:04;;;;;;;3.42;1.90;;;;;;;17.26;59.44;100706.03;5031230;28;20593;-81
2022/07/17 02:04:33;;;;;;;4.88;1.98;;;;;;;17.28;58.85;100709.13;4994883;28;20048;-81
2022/07/17 02:06:59;;;;;;;2.90;2.20;;;;;;;17.25;59.27;100710.06;5010936;28;20041;-80
2022/07/17 02:09:25;;;;;;;3.80;1.90;;;;;;;17.25;59.46;100716.44;4994511;28;20036;-81
2022/07/17 02:11:50;;;;;;;4.38;2.10;;;;;;;17.18;59.25;100711.16;4997226;28;20562;-81
2022/07/17 02:14:16;;;;;;;5.22;2.08;;;;;;;17.16;59.51;100712.84;5001163;28;20052;-80
2022/07/17 02:16:41;;;;;;;6.22;2.20;;;;;;;17.07;59.66;100710.81;5010457;28;20046;-82
2022/07/17 02:19:07;;;;;;;4.38;2.40;;;;;;;17.02;59.36;100714.25;4995183;28;20093;-83
2022/07/17 02:21:33;;;;;;;2.83;1.90;;;;;;;17.03;59.29;100709.41;4994652;28;20494;-83
2022/07/17 02:23:58;;;;;;;4.63;2.05;;;;;;;16.99;59.35;100703.97;5010997;28;20038;-83
2022/07/17 02:26:24;;;;;;;3.70;1.92;;;;;;;17.00;60.02;100713.16;4978964;28;20498;-83
2022/07/17 02:28:49;;;;;;;3.78;2.00;;;;;;;17.03;59.86;100715.78;4987472;28;20038;-83
2022/07/17 02:31:15;;;;;;;2.88;2.03;;;;;;;16.96;60.86;100720.91;4986318;28;20487;-83
2022/07/17 02:33:41;;;;;;;2.97;1.95;;;;;;;16.97;61.18;100719.69;4994823;28;20736;-82
2022/07/17 02:36:06;;;;;;;2.67;2.00;;;;;;;16.92;62.10;100720.28;4995314;28;20495;-83
2022/07/17 02:38:32;;;;;;;5.63;2.30;;;;;;;16.89;62.04;100722.00;4994702;28;20652;-83
2022/07/17 02:40:58;;;;;;;3.15;2.05;;;;;;;16.90;61.89;100728.41;4977358;28;20518;-82
2022/07/17 02:43:23;;;;;;;3.67;2.00;;;;;;;16.78;62.67;100733.66;4961496;28;20045;-82
2022/07/17 02:45:49;;;;;;;3.20;2.22;;;;;;;16.76;62.69;100712.94;4994469;28;20046;-83
2022/07/17 02:48:14;;;;;;;2.50;2.03;;;;;;;16.61;62.09;100735.16;4994059;28;20041;-82
2022/07/17 02:50:40;;;;;;;3.35;2.13;;;;;;;16.55;62.65;100731.38;5012498;28;20053;-82
2022/07/17 02:53:05;;;;;;;3.92;2.38;;;;;;;16.56;62.58;100727.34;4993347;28;20046;-82
2022/07/17 02:55:31;;;;;;;3.38;2.20;;;;;;;16.53;62.81;100728.25;4975781;28;20037;-82
2022/07/17 02:57:57;;;;;;;3.95;2.05;;;;;;;16.56;62.60;100726.56;4978920;28;20379;-83
2022/07/17 03:00:23;;;;;;;3.75;2.10;;;;;;;16.51;62.95;100730.72;4994479;28;20501;-83
2022/07/17 03:02:48;;;;;;;3.03;2.10;;;;;;;16.44;62.37;100731.03;5024366;28;20045;-83
2022/07/17 03:05:15;;;;;;;4.18;2.20;;;;;;;16.43;61.84;100729.44;5031307;28;20055;-82
2022/07/17 03:07:43;;;;;;;4.50;2.30;;;;;;;16.32;61.62;100738.28;5018153;28;20053;-82
2022/07/17 03:10:10;;;;;;;2.63;1.90;;;;;;;16.27;61.27;100744.47;5014282;28;20481;-83
2022/07/17 03:12:35;;;;;;;4.28;2.20;;;;;;;16.22;61.36;100738.69;5046236;28;20045;-83
2022/07/17 03:15:01;;;;;;;3.75;1.98;;;;;;;16.24;61.16;100741.81;5013549;28;20103;-81
2022/07/17 03:17:27;;;;;;;3.22;1.90;;;;;;;16.16;61.05;100734.94;5021113;28;20037;-83
2022/07/17 03:19:52;;;;;;;2.75;1.83;;;;;;;16.17;61.12;100744.91;5046185;28;20037;-83
2022/07/17 03:22:18;;;;;;;2.97;1.83;;;;;;;16.12;60.72;100756.69;5018208;28;20091;-83
2022/07/17 03:24:43;;;;;;;4.15;2.05;;;;;;;16.11;60.96;100757.91;5015372;28;20516;-82
2022/07/17 03:27:09;;;;;;;4.95;2.20;;;;;;;16.07;60.59;100749.66;5050204;28;20494;-83
2022/07/17 03:29:34;;;;;;;2.85;1.70;;;;;;;16.11;60.22;100758.69;5046528;28;20109;-82
2022/07/17 03:32:00;;;;;;;3.40;1.80;;;;;;;16.15;60.32;100764.94;4996342;28;20132;-82
2022/07/17 03:34:25;;;;;;;3.58;1.88;;;;;;;16.21;60.15;100762.34;5039729;28;20049;-80
2022/07/17 03:36:51;;;;;;;2.30;1.80;;;;;;;16.21;59.24;100768.72;5020732;28;20479;-82
2022/07/17 03:39:16;;;;;;;2.65;1.80;;;;;;;16.19;59.22;100767.59;5031560;28;20099;-82
2022/07/17 03:41:42;;;;;;;4.03;2.00;;;;;;;16.23;58.58;100771.81;5016998;28;20029;-82
2022/07/17 03:44:08;;;;;;;3.50;1.90;;;;;;;16.28;59.07;100767.66;5011319;28;20049;-83
2022/07/17 03:46:34;;;;;;;2.92;1.70;;;;;;;16.31;59.15;100772.31;5030238;28;20090;-82
2022/07/17 03:48:59;;;;;;;3.78;1.73;;;;;;;16.31;59.53;100772.31;5031758;28;20033;-82
2022/07/17 03:51:25;;;;;;;3.75;1.90;;;;;;;16.16;63.48;100776.91;5032268;28;20043;-81
2022/07/17 03:53:50;;;;;;;3.92;2.00;;;;;;;16.10;62.56;100778.72;5017087;28;20033;-81
2022/07/17 03:56:16;;;;;;;6.80;2.42;;;;;;;16.13;62.33;100783.44;5033363;28;20555;-82
2022/07/17 03:58:42;;;;;;;4.55;2.35;;;;;;;16.07;61.88;100776.84;5028983;28;20033;-82
2022/07/17 04:01:07;;;;;;;2.80;2.05;;;;;;;16.13;61.24;100789.03;5032946;28;20037;-82
2022/07/17 04:03:33;;;;;;;3.25;2.03;;;;;;;16.19;60.80;100790.00;5031899;28;20128;-82
2022/07/17 04:05:58;;;;;;;2.63;1.80;;;;;;;16.23;60.99;100782.25;5034807;28;20545;-82
2022/07/17 04:08:24;;;;;;;3.85;1.90;;;;;;;16.21;61.54;100784.72;5042067;28;20033;-82
2022/07/17 04:10:50;;;;;;;3.58;1.90;;;;;;;16.18;60.71;100768.81;5017228;28;20061;-81
2022/07/17 04:13:17;;;;;;;3.42;1.88;;;;;;;16.27;60.62;100785.69;4998300;28;20565;-82
2022/07/17 04:15:49;;;;;;;2.92;1.83;;;;;;;16.27;60.41;100794.88;5047474;28;20183;-82
2022/07/17 04:18:15;;;;;;;2.97;1.80;;;;;;;16.17;61.66;100789.69;5038978;28;20132;-83
2022/07/17 04:20:41;;;;;;;3.03;2.00;;;;;;;16.19;61.74;100784.38;5034599;28;20041;-83
2022/07/17 04:23:06;;;;;;;4.25;2.13;;;;;;;16.14;62.02;100791.34;5033111;28;20471;-82
2022/07/17 04:25:32;;;;;;;4.68;2.20;;;;;;;16.18;61.98;100780.03;5045140;28;20091;-83
2022/07/17 04:27:57;;;;;;;3.30;2.00;;;;;;;16.26;61.28;100786.91;5051030;28;20044;-83
2022/07/17 04:30:23;;;;;;;3.35;2.10;;;;;;;16.28;61.17;100795.66;4997047;28;20126;-83
2022/07/17 04:32:48;;;;;;;4.00;2.00;;;;;;;16.33;60.76;100787.44;5041560;28;20037;-82
2022/07/17 04:35:14;;;;;;;3.92;1.90;;;;;;;16.41;61.00;100799.16;5035186;28;20037;-82
2022/07/17 04:37:40;;;;;;;3.50;2.10;;;;;;;16.46;61.56;100801.34;5017279;28;20668;-83
2022/07/17 04:40:06;;;;;;;3.28;2.00;;;;;;;16.50;61.66;100801.22;5034966;28;20463;-83
2022/07/17 04:42:31;;;;;;;4.10;1.95;;;;;;;16.56;61.61;100802.94;5019064;28;20053;-83
2022/07/17 04:44:57;;;;;;;3.90;2.20;;;;;;;16.50;63.07;100804.03;5020913;28;20231;-83
2022/07/17 04:47:22;;;;;;;2.72;1.80;;;;;;;16.50;62.67;100798.41;5042887;28;20175;-83
2022/07/17 04:49:50;;;;;;;4.70;2.20;;;;;;;16.58;62.64;100791.34;5035838;28;20119;-83
2022/07/17 04:52:15;;;;;;;2.92;1.80;;;;;;;16.58;62.85;100789.28;5010881;28;20042;-83
2022/07/17 04:54:41;;;;;;;5.22;2.00;;;;;;;16.69;62.11;100797.28;5034401;28;20048;-83
2022/07/17 04:57:06;;;;;;;3.78;2.00;;;;;;;16.74;61.71;100800.25;5033141;28;20046;-83
2022/07/17 04:59:32;;;;;;;3.17;1.67;;;;;;;16.77;61.01;100799.34;5016605;28;20512;-83
2022/07/17 05:01:57;;;;;;;3.45;1.80;;;;;;;16.82;60.91;100797.97;5018149;28;20092;-83
2022/07/17 05:04:23;;;;;;;4.00;1.88;;;;;;;16.90;61.21;100801.25;5031744;28;20045;-83
2022/07/17 05:06:49;;;;;;;3.95;1.80;;;;;;;16.99;60.58;100804.84;5016472;28;20045;-83
2022/07/17 05:09:14;;;;;;;6.07;2.03;;;;;;;17.05;61.20;100807.84;5016376;28;20042;-81
2022/07/17 05:11:40;;;;;;;2.38;1.80;;;;;;;17.08;60.98;100809.72;5039175;28;20520;-83
2022/07/17 05:14:05;;;;;;;2.33;1.70;;;;;;;17.21;60.01;100815.97;5015821;28;20075;-82
2022/07/17 05:16:31;;;;;;;3.33;1.95;;;;;;;17.21;59.56;100810.38;5032534;28;20038;-83
2022/07/17 05:18:57;;;;;;;6.25;1.95;;;;;;;17.29;59.45;100805.25;5033953;28;20037;-81
2022/07/17 05:21:22;;;;;;;4.30;1.83;;;;;;;17.43;58.81;100802.59;5033083;28;20042;-81
2022/07/17 05:23:48;;;;;;;4.50;1.90;;;;;;;17.54;58.48;100816.19;5033574;28;20487;-81
2022/07/17 05:26:13;;;;;;;3.28;1.80;;;;;;;17.82;57.55;100802.97;5035580;28;20042;-81
2022/07/17 05:28:39;;;;;;;3.03;1.80;;;;;;;17.95;57.70;100797.97;5020132;28;20061;-84
2022/07/17 05:31:05;;;;;;;5.53;2.10;;;;;;;18.15;56.44;100803.88;5016624;28;20041;-84
2022/07/17 05:33:30;;;;;;;4.18;1.73;;;;;;;18.29;56.96;100820.06;5015884;28;20048;-82
2022/07/17 05:35:56;;;;;;;2.03;1.67;;;;;;;18.47;55.86;100814.41;5015554;28;20053;-82
2022/07/17 05:38:22;;;;;;;2.78;1.48;;;;;;;18.51;55.15;100812.22;5034191;28;20130;-82
2022/07/17 05:40:47;;;;;;;3.10;1.98;;;;;;;18.86;56.01;100823.03;5033985;28;20037;-82
2022/07/17 05:43:13;;;;;;;2.25;1.70;;;;;;;18.94;55.35;100824.22;5042457;28;20123;-84
2022/07/17 05:45:38;;;;;;;1.92;1.52;;;;;;;19.20;53.89;100825.38;5014627;28;20049;-82
2022/07/17 05:48:06;;;;;;;2.28;1.70;;;;;;;19.31;53.32;100836.84;5012417;28;20050;-82
2022/07/17 05:50:31;;;;;;;4.20;1.60;;;;;;;19.39;52.80;100832.44;5005441;28;20037;-82
2022/07/17 05:52:57;;;;;;;3.97;1.80;;;;;;;19.61;51.77;100837.00;5031734;28;20068;-82
2022/07/17 05:55:23;;;;;;;3.33;2.00;;;;;;;19.52;51.41;100835.03;5002196;28;20491;-82
2022/07/17 05:57:48;;;;;;;2.28;1.63;;;;;;;19.65;51.57;100848.84;5010728;28;20462;-83
2022/07/17 06:00:14;;;;;;;2.08;1.60;;;;;;;19.74;51.40;100845.97;5014132;28;20099;-84
2022/07/17 06:02:41;;;;;;;2.58;1.50;;;;;;;19.58;52.35;100849.97;5025598;28;20556;-82
2022/07/17 06:05:07;;;;;;;2.65;1.70;;;;;;;19.95;51.61;100853.31;4998843;28;20049;-82
2022/07/17 06:07:32;;;;;;;3.50;1.80;;;;;;;20.11;50.74;100850.03;5014060;28;20033;-82
2022/07/17 06:09:58;;;;;;;2.83;1.40;;;;;;;20.37;49.34;100848.25;5014142;28;20397;-84
2022/07/17 06:12:24;;;;;;;2.15;1.73;;;;;;;20.58;48.76;100851.16;4996462;28;20091;-82
2022/07/17 06:14:49;;;;;;;2.22;1.58;;;;;;;20.57;47.96;100855.25;4995961;28;20041;-85
2022/07/17 06:17:15;;;;;;;2.17;1.45;;;;;;;20.43;48.28;100857.56;5017001;28;20287;-83
2022/07/17 06:19:41;;;;;;;6.20;1.60;;;;;;;20.46;48.45;100850.94;5019535;28;20065;-82
2022/07/17 06:22:06;;;;;;;2.15;1.55;;;;;;;20.48;48.22;100854.06;5014539;28;20494;-83
2022/07/17 06:24:32;;;;;;;3.97;1.70;;;;;;;20.65;47.51;100862.03;4997862;28;20037;-83
2022/07/17 06:26:57;;;;;;;2.05;1.55;;;;;;;20.90;47.56;100859.41;5031207;28;20088;-84
2022/07/17 06:29:23;;;;;;;3.45;1.55;;;;;;;21.05;46.88;100862.19;5014068;28;20103;-84
2022/07/17 06:31:48;;;;;;;5.93;1.63;;;;;;;20.99;46.68;100869.00;5031169;28;20038;-84
2022/07/17 06:34:14;;;;;;;3.17;1.77;;;;;;;21.26;46.74;100863.81;4982101;28;20034;-84
2022/07/17 06:36:39;;;;;;;2.08;1.50;;;;;;;21.46;45.52;100867.94;5015673;28;20040;-83
2022/07/17 06:39:05;;;;;;;2.17;1.50;;;;;;;21.72;45.74;100849.78;5011679;28;20527;-83
2022/07/17 06:41:30;;;;;;;3.92;1.70;;;;;;;21.95;42.30;100864.22;4998461;28;20720;-83
2022/07/17 06:43:56;;;;;;;1.98;1.27;;;;;;;22.01;43.29;100868.66;4975724;28;20050;-82
2022/07/17 06:46:21;;;;;;;3.35;1.60;;;;;;;22.17;42.25;100865.22;4996646;28;20048;-83
2022/07/17 06:48:51;;;;;;;2.70;1.40;;;;;;;22.04;42.86;100873.31;5019988;28;20498;-83
2022/07/17 06:51:17;;;;;;;3.55;1.60;;;;;;;22.28;42.25;100859.69;5020117;28;20061;-83
2022/07/17 06:53:42;;;;;;;1.92;1.40;;;;;;;22.41;41.17;100867.00;5021942;28;20459;-85
2022/07/17 06:56:08;;;;;;;5.93;1.75;;;;;;;22.09;42.95;100864.13;5032273;28;20037;-83
2022/07/17 06:58:33;;;;;;;4.68;1.80;;;;;;;22.62;42.14;100865.66;5014638;28;20495;-85
2022/07/17 07:00:59;;;;;;;3.58;1.48;;;;;;;22.53;40.80;100865.84;5007516;28;20046;-86
2022/07/17 07:03:24;;;;;;;3.85;1.45;;;;;;;22.62;40.41;100866.44;5018702;28;20559;-86
2022/07/17 07:05:50;;;;;;;3.17;1.50;;;;;;;22.96;40.46;100861.09;5010427;28;20572;-86
2022/07/17 07:08:16;;;;;;;4.43;1.60;;;;;;;23.18;39.31;100867.69;4997943;28;20048;-86
2022/07/17 07:10:42;;;;;;;5.05;2.10;;;;;;;23.36;39.87;100875.00;5031362;28;20038;-86
2022/07/17 07:13:08;;;;;;;3.95;1.45;;;;;;;23.18;38.56;100873.34;5012417;28;20030;-87
2022/07/17 07:15:34;;;;;;;3.38;1.50;;;;;;;23.43;37.77;100866.06;4995647;28;20104;-85
2022/07/17 07:17:59;;;;;;;3.85;1.60;;;;;;;23.74;37.59;100870.84;5012531;28;20046;-85
2022/07/17 07:20:25;;;;;;;4.28;1.58;;;;;;;23.71;37.41;100869.03;4997069;28;20136;-85
2022/07/17 07:22:54;;;;;;;4.30;1.70;;;;;;;23.79;37.49;100870.09;5013788;28;20056;-84
2022/07/17 07:25:20;;;;;;;4.53;1.60;;;;;;;23.90;37.00;100861.63;5012420;28;20033;-81
2022/07/17 07:27:46;;;;;;;3.88;1.50;;;;;;;23.65;37.49;100865.41;5012840;28;20403;-81
2022/07/17 07:30:11;;;;;;;4.57;1.77;;;;;;;23.97;37.45;100872.50;5012569;28;20037;-82
2022/07/17 07:32:38;;;;;;;3.90;1.70;;;;;;;23.90;36.76;100872.97;4994817;28;20068;-83
2022/07/17 07:35:05;;;;;;;3.58;1.70;;;;;;;23.96;36.56;100861.66;5009322;28;20051;-82
2022/07/17 07:37:31;;;;;;;3.45;1.75;;;;;;;24.08;37.65;100864.03;5008831;28;20056;-81
2022/07/17 07:39:56;;;;;;;3.20;1.48;;;;;;;23.99;36.74;100867.06;4992604;28;20409;-82
2022/07/17 07:42:22;;;;;;;3.20;1.60;;;;;;;24.49;36.58;100869.28;5011643;28;20038;-82
2022/07/17 07:44:47;;;;;;;2.67;1.48;;;;;;;24.31;36.13;100866.94;5010836;28;20049;-83
2022/07/17 07:47:13;;;;;;;3.35;1.70;;;;;;;24.27;35.96;100863.56;4993177;28;20041;-82
2022/07/17 07:49:38;;;;;;;2.30;1.40;;;;;;;24.40;35.86;100869.53;5010496;28;20417;-83
2022/07/17 07:52:05;;;;;;;2.80;1.40;;;;;;;24.62;36.13;100875.25;4995306;28;20057;-83
2022/07/17 07:54:31;;;;;;;2.13;1.40;;;;;;;24.73;35.51;100882.97;5010829;28;20038;-83
2022/07/17 07:56:56;;;;;;;2.67;1.60;;;;;;;24.60;36.19;100874.97;4995235;28;20040;-83
2022/07/17 07:59:22;;;;;;;4.22;1.70;;;;;;;24.44;34.87;100872.88;5017229;28;20033;-86
2022/07/17 08:01:47;;;;;;;3.08;1.50;;;;;;;24.84;34.18;100880.13;5027875;28;20111;-87
2022/07/17 08:04:13;;;;;;;4.93;1.92;;;;;;;25.24;34.82;100876.00;5040886;28;20128;-86
2022/07/17 08:06:39;;;;;;;4.05;1.58;;;;;;;25.48;35.54;100874.13;4993677;28;20058;-87
2022/07/17 08:09:04;;;;;;;3.05;1.60;;;;;;;25.33;34.18;100872.88;5008411;28;20486;-86
2022/07/17 08:11:30;;;;;;;3.20;1.40;;;;;;;25.41;33.66;100876.72;5009194;28;20034;-87
2022/07/17 08:13:55;;;;;;;5.00;1.70;;;;;;;25.09;33.54;100876.28;5009410;28;20034;-86
2022/07/17 08:16:21;;;;;;;2.58;1.58;;;;;;;24.60;33.53;100877.81;4993544;28;20521;-86
2022/07/17 08:18:47;;;;;;;3.80;1.50;;;;;;;25.05;33.81;100876.53;5008814;28;20041;-83
2022/07/17 08:21:12;;;;;;;3.67;1.60;;;;;;;25.47;33.88;100872.59;4976857;28;20511;-86
2022/07/17 08:23:38;;;;;;;4.45;1.48;;;;;;;25.75;33.18;100881.06;5008606;28;20034;-85
2022/07/17 08:26:04;;;;;;;4.75;1.70;;;;;;;26.03;32.47;100883.00;5009140;28;20054;-84
2022/07/17 08:28:30;;;;;;;6.00;2.10;;;;;;;26.30;31.98;100874.34;5008269;28;20041;-83
2022/07/17 08:30:55;;;;;;;4.20;1.70;;;;;;;26.43;32.15;100885.13;5009401;28;20048;-85
2022/07/17 08:33:21;;;;;;;7.50;1.60;;;;;;;26.61;32.45;100887.31;5006945;28;20050;-86
2022/07/17 08:35:47;;;;;;;3.50;1.40;;;;;;;26.68;31.41;100892.44;5008597;28;20072;-86
2022/07/17 08:38:12;;;;;;;6.43;1.65;;;;;;;26.81;29.64;100881.19;5008736;28;20062;-84
2022/07/17 08:40:39;;;;;;;3.88;1.70;;;;;;;26.74;31.75;100884.63;4988275;28;20166;-84
2022/07/17 08:43:07;;;;;;;4.00;1.60;;;;;;;26.64;31.56;100879.78;5021097;28;20092;-83
2022/07/17 08:45:33;;;;;;;2.97;1.40;;;;;;;26.58;31.09;100871.28;5007295;28;20045;-82
2022/07/17 08:48:00;;;;;;;2.85;1.55;;;;;;;26.51;31.19;100886.09;5039965;28;20066;-83
2022/07/17 08:50:31;;;;;;;4.22;1.55;;;;;;;26.77;30.09;100882.81;5008727;28;20049;-83
2022/07/17 08:52:58;;;;;;;2.88;1.30;;;;;;;25.76;31.23;100885.41;5024122;28;20046;-79
2022/07/17 08:55:23;;;;;;;3.42;1.45;;;;;;;26.18;32.32;100872.06;5007208;28;20042;-80
2022/07/17 08:57:49;;;;;;;2.53;1.40;;;;;;;25.98;30.86;100885.34;5007596;28;20034;-87
2022/07/17 09:00:18;;;;;;;3.20;1.50;;;;;;;26.19;31.12;100882.13;4990909;28;20046;-84
2022/07/17 09:03:07;;;;;;;2.13;1.63;;;;;;;26.37;29.68;100890.84;5014116;28;20041;-84
2022/07/17 09:05:35;;;;;;;4.78;1.55;;;;;;;26.30;30.97;100874.34;5024971;28;20095;-84
2022/07/17 09:08:01;;;;;;;2.58;1.33;;;;;;;26.71;30.69;100874.31;4991465;28;20109;-85
2022/07/17 09:10:47;;;;;;;4.90;1.65;;;;;;;26.64;31.29;100877.72;5023185;28;20144;-84
2022/07/17 09:13:25;;;;;;;4.03;1.50;;;;;;;27.02;29.36;100880.78;5010463;28;20139;-81
2022/07/17 09:15:57;;;;;;;2.55;1.60;;;;;;;27.06;29.79;100864.97;5025040;28;20069;-81
2022/07/17 09:18:23;;;;;;;5.15;1.70;;;;;;;27.00;28.68;100877.72;5010849;28;20052;-86
2022/07/17 09:20:55;;;;;;;5.05;1.60;;;;;;;26.50;29.69;100886.63;5012935;28;20041;-86
2022/07/17 09:23:23;;;;;;;3.03;1.48;;;;;;;26.75;30.61;100871.16;5021189;28;20041;-86
2022/07/17 09:25:51;;;;;;;3.22;1.40;;;;;;;27.26;30.10;100872.25;5034431;28;20498;-86
2022/07/17 09:28:17;;;;;;;3.10;1.40;;;;;;;26.84;30.44;100877.34;5052034;28;20036;-86
2022/07/17 09:30:45;;;;;;;4.68;1.35;;;;;;;27.14;29.93;100876.53;5051556;28;20057;-87
2022/07/17 09:33:23;;;;;;;3.83;1.38;;;;;;;27.38;29.81;100861.56;5035283;28;20045;-85
2022/07/17 09:35:54;;;;;;;3.67;1.67;;;;;;;27.42;28.44;100879.88;5027597;28;20077;-86
2022/07/17 09:38:33;;;;;;;2.83;1.45;;;;;;;27.63;28.79;100883.81;5014364;28;20045;-86
2022/07/17 09:41:17;;;;;;;3.88;1.60;;;;;;;27.98;27.91;100876.38;5013963;28;20042;-86
2022/07/17 09:43:53;;;;;;;3.13;1.40;;;;;;;27.93;27.82;100865.81;5010522;28;20507;-86
2022/07/17 09:46:21;;;;;;;4.25;1.50;;;;;;;28.08;28.14;100877.53;5010548;28;20113;-85
2022/07/17 09:48:49;;;;;;;3.40;1.50;;;;;;;27.45;30.26;100864.56;5025840;28;20183;-85
2022/07/17 09:51:20;;;;;;;5.05;1.40;;;;;;;27.54;27.97;100872.00;5030994;28;20045;-86
2022/07/17 09:53:49;;;;;;;4.32;1.40;;;;;;;27.61;29.39;100872.19;5011215;28;20050;-85
2022/07/17 09:56:17;;;;;;;3.88;1.50;;;;;;;28.23;28.53;100872.94;5012896;28;20510;-81
2022/07/17 09:58:46;;;;;;;3.80;1.65;;;;;;;27.97;29.32;100872.00;5021353;28;21039;-82
2022/07/17 10:01:14;;;;;;;3.70;1.40;;;;;;;28.48;29.81;100864.28;5030158;28;20030;-82
2022/07/17 10:03:40;;;;;;;3.08;1.58;;;;;;;28.47;29.39;100866.34;4993636;28;20128;-82
2022/07/17 10:06:06;;;;;;;3.78;1.38;;;;;;;28.07;27.46;100879.63;4994481;28;20046;-82
2022/07/17 10:08:32;;;;;;;3.00;1.50;;;;;;;27.84;28.38;100875.53;5009370;28;20050;-82
2022/07/17 10:10:57;;;;;;;2.70;1.15;;;;;;;28.01;26.50;100866.75;5010497;28;20089;-81
2022/07/17 10:13:23;;;;;;;3.40;1.33;;;;;;;28.31;26.88;100855.22;5009161;28;20060;-81
2022/07/17 10:15:50;;;;;;;2.92;1.60;;;;;;;27.76;28.62;100858.25;5026372;28;20042;-86
2022/07/17 10:18:16;;;;;;;3.00;1.60;;;;;;;27.88;28.95;100863.81;5011154;28;20042;-86
2022/07/17 10:20:41;;;;;;;3.67;1.52;;;;;;;27.97;28.84;100855.66;5010253;28;20076;-86
2022/07/17 10:23:14;;;;;;;2.25;1.40;;;;;;;27.86;28.12;100855.81;5006467;28;20053;-86
2022/07/17 10:25:39;;;;;;;4.05;1.50;;;;;;;28.10;27.71;100857.84;4990595;28;20046;-86
2022/07/17 10:28:07;;;;;;;5.50;1.58;;;;;;;28.58;29.26;100857.63;4991803;28;20042;-86
2022/07/17 10:30:33;;;;;;;2.88;1.73;;;;;;;28.28;28.45;100852.13;4990153;28;20046;-86
2022/07/17 10:33:01;;;;;;;3.97;1.42;;;;;;;28.35;30.74;100842.16;5006252;28;20517;-86
2022/07/17 10:35:28;;;;;;;2.95;1.50;;;;;;;28.21;28.95;100851.97;4990413;28;20089;-85
2022/07/17 10:38:17;;;;;;;4.25;1.70;;;;;;;28.23;28.95;100846.47;5017796;28;20120;-84
2022/07/17 10:40:43;;;;;;;4.63;1.73;;;;;;;28.51;28.37;100843.97;5010739;28;20041;-85
2022/07/17 10:43:09;;;;;;;2.00;1.40;;;;;;;28.35;27.41;100856.41;5010555;28;20111;-86
2022/07/17 10:45:43;;;;;;;2.80;1.50;;;;;;;28.66;27.94;100847.13;5010388;28;20037;-86
2022/07/17 10:48:19;;;;;;;2.95;1.58;;;;;;;29.06;27.36;100845.16;4993566;28;20046;-86
2022/07/17 10:50:53;;;;;;;2.78;1.40;;;;;;;28.90;26.94;100842.59;4993495;28;20096;-86
2022/07/17 10:53:21;;;;;;;3.97;1.50;;;;;;;28.34;28.44;100832.06;5009637;28;20498;-85
2022/07/17 10:55:52;;;;;;;4.50;1.92;;;;;;;27.93;27.99;100837.31;5009277;28;20403;-85
2022/07/17 10:58:24;;;;;;;5.13;1.50;;;;;;;28.48;26.51;100836.50;5009719;28;20157;-86
2022/07/17 11:01:03;;;;;;;4.25;1.67;;;;;;;28.56;26.41;100834.56;5007692;28;20049;-86
2022/07/17 11:03:30;;;;;;;3.15;1.80;;;;;;;28.57;27.77;100818.97;4993757;28;20038;-86
2022/07/17 11:06:18;;;;;;;4.22;1.70;;;;;;;28.69;27.55;100819.59;4994128;28;20045;-87
2022/07/17 11:08:49;;;;;;;2.70;1.52;;;;;;;28.71;27.52;100820.56;4992377;28;20099;-87
2022/07/17 11:11:16;;;;;;;2.25;1.63;;;;;;;28.14;26.86;100824.84;5010999;28;20059;-82
2022/07/17 11:13:42;;;;;;;3.38;1.75;;;;;;;28.36;27.67;100809.47;5011958;28;20072;-86
2022/07/17 11:16:08;;;;;;;5.13;1.88;;;;;;;28.31;26.97;100813.16;4995654;28;20041;-86
2022/07/17 11:18:34;;;;;;;3.60;1.80;;;;;;;28.16;28.55;100807.19;5012918;28;20470;-86
2022/07/17 11:21:01;;;;;;;4.70;1.70;;;;;;;28.26;27.05;100799.78;5012461;28;20065;-86
2022/07/17 11:23:29;;;;;;;5.53;1.63;;;;;;;28.67;28.39;100799.38;5012912;28;20148;-86
2022/07/17 11:26:06;;;;;;;4.22;1.77;;;;;;;28.08;27.57;100792.75;5012099;28;20056;-87